Time;durP1;ratioP1;P1;durP2;ratioP2;P2;SDS_P1;SDS_P2;PMS_P1;PMS_P2;Temp;Humidity;BMP_temperature;BMP_pressure;BME280_temperature;BME280_humidity;BME280_pressure;Samples;Min_cycle;Max_cycle;Signal;HPM_P1;HPM_P2
2022/07/16 00:01:41;;;;;;;;;;;28.20;35.70;;;;;;697441;28;619;-87
2022/07/16 00:02:02;;;;;;;;;;;28.20;35.70;;;;;;697082;28;1446;-86
2022/07/16 00:02:23;;;;;;;;;;;28.20;35.70;;;;;;697118;28;1282;-87
2022/07/16 00:02:43;;;;;;;;;;;28.20;35.80;;;;;;694437;28;1180;-87
2022/07/16 00:03:04;;;;;;;;;;;28.20;35.80;;;;;;694422;28;1251;-86
2022/07/16 00:03:25;;;;;;;;;;;28.20;35.70;;;;;;694582;28;1125;-87
2022/07/16 00:03:49;;;;;;;;;;;28.20;35.70;;;;;;694902;28;1327;-88
2022/07/16 00:04:10;;;;;;;;;;;;;;;;;;695384;28;1278;-89
2022/07/16 00:04:58;;;;;;;;;;;28.20;35.60;;;;;;697350;28;1421;-89
2022/07/16 00:06:45;;;;;;;;;;;28.30;35.50;;;;;;686361;28;1367;-88
2022/07/16 00:07:07;;;;;;;;;;;28.20;35.50;;;;;;687257;28;1352;-87
2022/07/16 00:07:34;;;;;;;;;;;28.30;35.50;;;;;;688973;28;1524;-88
2022/07/16 00:07:54;;;;;;;;;;;28.30;35.50;;;;;;686084;28;1125;-86
2022/07/16 00:08:15;;;;;;;;;;;;;;;;;;686172;28;1977;-88
2022/07/16 00:08:36;;;;;;;;;;;28.30;35.50;;;;;;683560;29;1259;-88
2022/07/16 00:08:56;;;;;;;;;;;28.30;35.50;;;;;;682301;29;1573;-85
2022/07/16 00:09:17;;;;;;;;;;;28.30;35.50;;;;;;683375;29;1321;-88
2022/07/16 00:09:46;;;;;;;;;;;28.30;35.50;;;;;;684161;28;957;-91
2022/07/16 00:10:07;;;;;;;;;;;28.30;35.50;;;;;;686480;28;1406;-88
2022/07/16 00:10:28;;;;;;;;;;;28.30;35.40;;;;;;687428;28;1204;-87
2022/07/16 00:10:48;;;;;;;;;;;28.30;35.50;;;;;;687644;28;1420;-88
2022/07/16 00:11:09;;;;;;;;;;;28.20;35.40;;;;;;687563;28;1329;-88
2022/07/16 00:11:30;;;;;;;;;;;28.30;35.50;;;;;;688880;28;1242;-87
2022/07/16 00:11:50;;;;;;;;;;;;;;;;;;686317;28;1272;-88
2022/07/16 00:12:11;;;;;;;;;;;28.30;35.60;;;;;;683691;29;1079;-88
2022/07/16 00:12:32;;;;;;;;;;;28.30;35.50;;;;;;683823;29;1001;-89
2022/07/16 00:13:38;;;;;;;;;;;28.30;35.40;;;;;;675803;29;1295;-89
2022/07/16 00:13:59;;;;;;;;;;;28.30;35.40;;;;;;679296;29;1257;-84
2022/07/16 00:14:20;;;;;;;;;;;;;;;;;;681004;29;820;-86
2022/07/16 00:14:41;;;;;;;;;;;;;;;;;;683430;29;1132;-90
2022/07/16 00:15:03;;;;;;;;;;;28.30;35.40;;;;;;683633;29;792;-87
2022/07/16 00:15:26;;;;;;;;;;;;;;;;;;680853;29;1264;-88
2022/07/16 00:15:47;;;;;;;;;;;28.30;35.30;;;;;;678259;29;1501;-87
2022/07/16 00:16:13;;;;;;;;;;;28.30;35.40;;;;;;675687;29;1239;-88
2022/07/16 00:16:34;;;;;;;;;;;28.30;35.30;;;;;;675599;29;914;-88
2022/07/16 00:16:55;;;;;;;;;;;;;;;;;;675700;29;828;-87
2022/07/16 00:17:33;;;;;;;;;;;28.30;35.30;;;;;;677375;29;1263;-89
2022/07/16 00:19:15;;;;;;;;;;;28.30;35.30;;;;;;676253;29;1286;-87
2022/07/16 00:19:23;;;;;;;;;;;28.30;35.40;;;;;;680601;29;677;-87
2022/07/16 00:19:44;;;;;;;;;;;28.30;35.30;;;;;;679109;29;1313;-87
2022/07/16 00:20:05;;;;;;;;;;;28.30;35.40;;;;;;681002;29;1327;-86
2022/07/16 00:20:26;;;;;;;;;;;28.30;35.40;;;;;;680637;29;1325;-86
2022/07/16 00:20:46;;;;;;;;;;;28.30;35.40;;;;;;678208;29;1305;-86
2022/07/16 00:21:07;;;;;;;;;;;28.30;35.40;;;;;;675620;29;1165;-87
2022/07/16 00:21:28;;;;;;;;;;;28.30;35.50;;;;;;675901;29;1249;-89
2022/07/16 00:21:50;;;;;;;;;;;28.30;35.40;;;;;;675566;29;1389;-87
2022/07/16 00:22:10;;;;;;;;;;;28.30;35.50;;;;;;675587;29;1534;-87
2022/07/16 00:22:31;;;;;;;;;;;28.30;35.50;;;;;;675937;29;1097;-88
2022/07/16 00:22:52;;;;;;;;;;;28.30;35.50;;;;;;675544;29;1127;-87
2022/07/16 00:23:12;;;;;;;;;;;28.30;35.40;;;;;;675546;29;1185;-87
2022/07/16 00:23:33;;;;;;;;;;;28.30;35.40;;;;;;673340;29;1252;-87
2022/07/16 00:23:53;;;;;;;;;;;28.30;35.40;;;;;;678149;29;1284;-87
2022/07/16 00:24:17;;;;;;;;;;;28.30;35.40;;;;;;678189;29;1244;-87
2022/07/16 00:24:38;;;;;;;;;;;28.30;35.40;;;;;;678240;29;1249;-86
2022/07/16 00:24:58;;;;;;;;;;;28.30;35.40;;;;;;675609;29;1290;-85
2022/07/16 00:25:19;;;;;;;;;;;28.30;35.50;;;;;;675584;29;1191;-86
2022/07/16 00:25:40;;;;;;;;;;;28.30;35.40;;;;;;675499;29;1443;-87
2022/07/16 00:26:00;;;;;;;;;;;28.40;35.50;;;;;;677745;29;1267;-87
2022/07/16 00:26:21;;;;;;;;;;;28.30;35.40;;;;;;675652;29;1291;-87
2022/07/16 00:26:42;;;;;;;;;;;;;;;;;;673266;29;1342;-88
2022/07/16 00:27:03;;;;;;;;;;;28.40;35.50;;;;;;675652;29;1293;-88
2022/07/16 00:27:24;;;;;;;;;;;28.40;35.50;;;;;;675588;29;1119;-87
2022/07/16 00:27:44;;;;;;;;;;;28.30;35.30;;;;;;675395;29;1386;-88
2022/07/16 00:28:05;;;;;;;;;;;;;;;;;;670833;29;1142;-85
2022/07/16 00:28:26;;;;;;;;;;;28.30;35.40;;;;;;673468;29;1890;-86
2022/07/16 00:28:46;;;;;;;;;;;28.30;35.40;;;;;;673300;29;1107;-85
2022/07/16 00:29:07;;;;;;;;;;;28.40;35.50;;;;;;675930;29;1509;-85
2022/07/16 00:29:31;;;;;;;;;;;28.40;35.50;;;;;;676022;29;1083;-88
2022/07/16 00:29:58;;;;;;;;;;;28.40;35.50;;;;;;674245;29;1312;-88
2022/07/16 00:30:18;;;;;;;;;;;28.40;35.40;;;;;;675788;29;1085;-88
2022/07/16 00:30:39;;;;;;;;;;;28.30;35.30;;;;;;675884;29;918;-86
2022/07/16 00:30:59;;;;;;;;;;;28.30;35.30;;;;;;674105;29;1284;-86
2022/07/16 00:31:20;;;;;;;;;;;28.40;35.50;;;;;;671832;29;1312;-89
2022/07/16 00:31:41;;;;;;;;;;;;;;;;;;672773;29;1402;-86
2022/07/16 00:32:02;;;;;;;;;;;28.40;35.40;;;;;;675589;29;1200;-87
2022/07/16 00:32:22;;;;;;;;;;;28.40;35.40;;;;;;675844;29;1216;-86
2022/07/16 00:32:43;;;;;;;;;;;28.40;35.40;;;;;;676292;29;1253;-88
2022/07/16 00:33:03;;;;;;;;;;;28.40;35.40;;;;;;675882;29;1279;-87
2022/07/16 00:33:24;;;;;;;;;;;28.30;35.30;;;;;;678693;29;910;-87
2022/07/16 00:33:45;;;;;;;;;;;28.30;35.30;;;;;;678379;29;1238;-88
2022/07/16 00:34:06;;;;;;;;;;;28.30;35.30;;;;;;680865;29;771;-86
2022/07/16 00:34:27;;;;;;;;;;;28.40;35.40;;;;;;678077;29;1239;-87
2022/07/16 00:34:48;;;;;;;;;;;28.30;35.30;;;;;;680756;29;1380;-87
2022/07/16 00:35:08;;;;;;;;;;;28.30;35.30;;;;;;680728;29;1186;-87
2022/07/16 00:35:29;;;;;;;;;;;28.40;35.40;;;;;;680859;29;1430;-87
2022/07/16 00:35:52;;;;;;;;;;;28.40;35.40;;;;;;680821;29;1246;-87
2022/07/16 00:36:13;;;;;;;;;;;28.40;35.50;;;;;;678355;29;1210;-86
2022/07/16 00:36:34;;;;;;;;;;;28.40;35.50;;;;;;678900;29;780;-87
2022/07/16 00:36:55;;;;;;;;;;;28.40;35.50;;;;;;680399;29;887;-87
2022/07/16 00:37:15;;;;;;;;;;;28.40;35.50;;;;;;678349;29;1310;-87
2022/07/16 00:37:36;;;;;;;;;;;28.30;35.30;;;;;;676291;29;1375;-88
2022/07/16 00:37:56;;;;;;;;;;;28.30;35.30;;;;;;678653;29;835;-87
2022/07/16 00:38:17;;;;;;;;;;;28.40;35.50;;;;;;680944;29;1326;-88
2022/07/16 00:38:38;;;;;;;;;;;;;;;;;;680881;29;1259;-86
2022/07/16 00:38:58;;;;;;;;;;;28.30;35.40;;;;;;680803;29;1377;-87
2022/07/16 00:39:19;;;;;;;;;;;28.40;35.60;;;;;;680759;29;1238;-88
2022/07/16 00:39:40;;;;;;;;;;;28.40;35.50;;;;;;678457;29;1203;-88
2022/07/16 00:40:00;;;;;;;;;;;28.40;35.50;;;;;;677668;29;1285;-86
2022/07/16 00:40:21;;;;;;;;;;;28.40;35.50;;;;;;675723;29;867;-90
2022/07/16 00:40:41;;;;;;;;;;;28.30;35.60;;;;;;676004;29;824;-89
2022/07/16 00:41:02;;;;;;;;;;;28.30;35.60;;;;;;678210;29;1276;-88
2022/07/16 00:41:22;;;;;;;;;;;28.30;35.60;;;;;;675924;29;1389;-84
2022/07/16 00:41:44;;;;;;;;;;;28.30;35.50;;;;;;675129;29;1334;-86
2022/07/16 00:42:04;;;;;;;;;;;28.40;35.50;;;;;;675560;29;1287;-86
2022/07/16 00:42:25;;;;;;;;;;;28.30;35.50;;;;;;678219;29;1378;-87
2022/07/16 00:42:46;;;;;;;;;;;28.30;35.40;;;;;;678214;29;1260;-87
2022/07/16 00:43:10;;;;;;;;;;;28.30;35.40;;;;;;678161;29;1267;-89
2022/07/16 00:43:31;;;;;;;;;;;;;;;;;;679013;29;1609;-88
2022/07/16 00:43:53;;;;;;;;;;;28.30;35.50;;;;;;680796;29;887;-88
2022/07/16 00:44:15;;;;;;;;;;;28.30;35.50;;;;;;679974;29;827;-87
2022/07/16 00:44:35;;;;;;;;;;;28.30;35.50;;;;;;678154;29;1407;-86
2022/07/16 00:44:56;;;;;;;;;;;28.30;35.50;;;;;;679056;29;1017;-86
2022/07/16 00:45:16;;;;;;;;;;;28.30;35.50;;;;;;678696;29;1463;-86
2022/07/16 00:45:38;;;;;;;;;;;28.30;35.50;;;;;;680797;29;1261;-86
2022/07/16 00:45:58;;;;;;;;;;;28.30;35.50;;;;;;680980;28;876;-87
2022/07/16 00:46:19;;;;;;;;;;;28.30;35.40;;;;;;680902;28;1355;-88
2022/07/16 00:46:40;;;;;;;;;;;28.30;35.50;;;;;;681157;29;791;-86
2022/07/16 00:47:01;;;;;;;;;;;;;;;;;;680695;29;1462;-86
2022/07/16 00:47:21;;;;;;;;;;;28.30;35.50;;;;;;680746;29;1496;-85
2022/07/16 00:47:42;;;;;;;;;;;28.30;35.40;;;;;;678308;29;899;-88
2022/07/16 00:48:02;;;;;;;;;;;28.30;35.50;;;;;;678483;29;1311;-86
2022/07/16 00:48:26;;;;;;;;;;;28.30;35.50;;;;;;678095;29;1965;-87
2022/07/16 00:48:46;;;;;;;;;;;28.20;35.50;;;;;;678734;29;1334;-88
2022/07/16 00:49:08;;;;;;;;;;;28.20;35.50;;;;;;681298;29;1154;-87
2022/07/16 00:49:28;;;;;;;;;;;28.30;35.60;;;;;;680830;29;1202;-89
2022/07/16 00:49:49;;;;;;;;;;;28.30;35.60;;;;;;677354;29;1368;-87
2022/07/16 00:50:10;;;;;;;;;;;28.30;35.60;;;;;;679376;29;817;-88
2022/07/16 00:50:31;;;;;;;;;;;;;;;;;;680795;29;1005;-89
2022/07/16 00:50:52;;;;;;;;;;;28.30;35.60;;;;;;680898;29;808;-89
2022/07/16 00:51:13;;;;;;;;;;;28.30;35.60;;;;;;681168;29;847;-88
2022/07/16 00:51:34;;;;;;;;;;;28.30;35.60;;;;;;684337;28;1472;-86
2022/07/16 00:51:55;;;;;;;;;;;;;;;;;;691540;28;1417;-88
2022/07/16 00:52:19;;;;;;;;;;;28.30;35.60;;;;;;691256;28;1346;-87
2022/07/16 00:52:39;;;;;;;;;;;28.30;35.70;;;;;;688870;28;889;-87
2022/07/16 00:53:00;;;;;;;;;;;28.30;35.70;;;;;;688799;28;1278;-88
2022/07/16 00:53:21;;;;;;;;;;;;;;;;;;689650;28;1392;-89
2022/07/16 00:53:42;;;;;;;;;;;28.20;35.70;;;;;;692423;28;811;-87
2022/07/16 00:54:03;;;;;;;;;;;28.20;35.60;;;;;;694261;28;1433;-87
2022/07/16 00:54:24;;;;;;;;;;;28.30;35.60;;;;;;694275;28;1144;-86
2022/07/16 00:54:44;;;;;;;;;;;28.20;35.50;;;;;;691730;28;1092;-86
2022/07/16 00:55:05;;;;;;;;;;;28.20;35.50;;;;;;691486;28;1164;-87
2022/07/16 00:55:26;;;;;;;;;;;28.30;35.60;;;;;;689036;28;1380;-87
2022/07/16 00:55:47;;;;;;;;;;;28.30;35.80;;;;;;688826;28;1253;-88
2022/07/16 00:56:09;;;;;;;;;;;28.20;35.60;;;;;;688801;28;1109;-88
2022/07/16 00:56:30;;;;;;;;;;;28.30;35.70;;;;;;689412;28;875;-87
2022/07/16 00:56:51;;;;;;;;;;;;;;;;;;688806;28;1328;-88
2022/07/16 00:57:12;;;;;;;;;;;28.20;35.60;;;;;;688768;28;1458;-86
2022/07/16 00:57:33;;;;;;;;;;;28.30;35.70;;;;;;686167;28;1362;-87
2022/07/16 00:57:54;;;;;;;;;;;28.20;35.70;;;;;;686793;28;1177;-87
2022/07/16 00:58:15;;;;;;;;;;;28.20;35.60;;;;;;689301;28;1326;-87
2022/07/16 00:58:40;;;;;;;;;;;28.20;35.60;;;;;;691486;28;1090;-86
2022/07/16 00:59:01;;;;;;;;;;;;;;;;;;691498;28;1387;-88
2022/07/16 00:59:21;;;;;;;;;;;28.20;35.70;;;;;;689970;28;1365;-91
2022/07/16 00:59:42;;;;;;;;;;;;;;;;;;688810;28;1436;-87
2022/07/16 01:00:03;;;;;;;;;;;;;;;;;;686108;28;1223;-87
2022/07/16 01:00:24;;;;;;;;;;;28.20;35.80;;;;;;686978;28;1356;-87
2022/07/16 01:00:45;;;;;;;;;;;28.20;35.80;;;;;;685995;28;1431;-86
2022/07/16 01:01:06;;;;;;;;;;;28.20;35.90;;;;;;686505;28;1135;-86
2022/07/16 01:01:26;;;;;;;;;;;28.20;35.80;;;;;;689318;28;1317;-88
2022/07/16 01:01:47;;;;;;;;;;;;;;;;;;688794;28;914;-88
2022/07/16 01:02:08;;;;;;;;;;;;;;;;;;688739;28;1522;-87
2022/07/16 01:02:29;;;;;;;;;;;28.20;35.70;;;;;;688871;28;755;-87
2022/07/16 01:02:52;;;;;;;;;;;28.20;35.70;;;;;;686554;28;1231;-87
2022/07/16 01:03:13;;;;;;;;;;;28.20;35.70;;;;;;683911;29;1401;-87
2022/07/16 01:03:34;;;;;;;;;;;28.20;35.80;;;;;;687115;28;1422;-87
2022/07/16 01:03:54;;;;;;;;;;;28.20;35.70;;;;;;689505;28;1256;-87
2022/07/16 01:04:16;;;;;;;;;;;28.20;35.70;;;;;;691513;28;799;-86
2022/07/16 01:04:36;;;;;;;;;;;;;;;;;;689670;28;1214;-86
2022/07/16 01:04:57;;;;;;;;;;;28.20;35.80;;;;;;688792;28;1294;-87
2022/07/16 01:05:18;;;;;;;;;;;28.20;35.80;;;;;;688748;28;918;-87
2022/07/16 01:05:38;;;;;;;;;;;28.20;35.80;;;;;;689323;28;1188;-87
2022/07/16 01:06:00;;;;;;;;;;;28.20;35.70;;;;;;691529;28;807;-88
2022/07/16 01:06:22;;;;;;;;;;;;;;;;;;691280;28;1320;-87
2022/07/16 01:06:44;;;;;;;;;;;28.20;35.80;;;;;;692342;28;913;-89
2022/07/16 01:07:08;;;;;;;;;;;28.20;35.80;;;;;;691465;28;1171;-88
2022/07/16 01:07:29;;;;;;;;;;;28.20;35.80;;;;;;691601;28;903;-86
2022/07/16 01:07:50;;;;;;;;;;;28.20;35.80;;;;;;688823;28;1404;-86
2022/07/16 01:08:12;;;;;;;;;;;;;;;;;;688452;28;1263;-87
2022/07/16 01:08:33;;;;;;;;;;;28.20;35.60;;;;;;685559;28;1898;-88
2022/07/16 01:08:54;;;;;;;;;;;28.20;35.60;;;;;;686904;28;1095;-87
2022/07/16 01:09:15;;;;;;;;;;;28.20;35.60;;;;;;688787;28;1245;-86
2022/07/16 01:09:36;;;;;;;;;;;28.20;35.70;;;;;;687051;28;1216;-87
2022/07/16 01:09:57;;;;;;;;;;;28.20;35.60;;;;;;686739;28;871;-86
2022/07/16 01:10:18;;;;;;;;;;;28.20;35.70;;;;;;684887;28;1282;-87
2022/07/16 01:10:39;;;;;;;;;;;28.20;35.70;;;;;;687083;28;1465;-86
2022/07/16 01:11:01;;;;;;;;;;;28.20;35.70;;;;;;685017;28;1237;-87
2022/07/16 01:11:22;;;;;;;;;;;28.20;35.80;;;;;;687494;28;1249;-87
2022/07/16 01:11:43;;;;;;;;;;;28.20;35.80;;;;;;689300;28;921;-88
2022/07/16 01:12:05;;;;;;;;;;;28.20;35.80;;;;;;690023;28;1159;-87
2022/07/16 01:12:25;;;;;;;;;;;28.20;35.80;;;;;;686950;28;1449;-87
2022/07/16 01:12:46;;;;;;;;;;;28.20;35.80;;;;;;687210;28;1319;-87
2022/07/16 01:13:08;;;;;;;;;;;28.20;35.80;;;;;;687226;28;1318;-87
2022/07/16 01:13:29;;;;;;;;;;;28.20;35.70;;;;;;687039;28;1301;-88
2022/07/16 01:13:50;;;;;;;;;;;28.20;35.80;;;;;;684369;28;1372;-86
2022/07/16 01:14:11;;;;;;;;;;;;;;;;;;687404;28;800;-88
2022/07/16 01:14:31;;;;;;;;;;;28.20;35.70;;;;;;686934;28;1385;-88
2022/07/16 01:14:52;;;;;;;;;;;28.10;35.60;;;;;;692173;28;1338;-86
2022/07/16 01:15:12;;;;;;;;;;;28.20;35.80;;;;;;692035;28;1103;-89
2022/07/16 01:15:33;;;;;;;;;;;28.20;35.80;;;;;;689142;28;1512;-87
2022/07/16 01:15:54;;;;;;;;;;;28.20;35.80;;;;;;689095;28;1351;-88
2022/07/16 01:16:15;;;;;;;;;;;28.20;35.80;;;;;;689173;28;1221;-88
2022/07/16 01:16:35;;;;;;;;;;;28.20;35.70;;;;;;691533;28;1133;-88
2022/07/16 01:16:56;;;;;;;;;;;28.10;35.70;;;;;;689143;28;1232;-87
2022/07/16 01:17:16;;;;;;;;;;;28.20;35.70;;;;;;689373;28;879;-88
2022/07/16 01:17:37;;;;;;;;;;;28.20;35.60;;;;;;689147;28;1310;-88
2022/07/16 01:17:57;;;;;;;;;;;28.20;35.60;;;;;;689294;28;1118;-88
2022/07/16 01:18:18;;;;;;;;;;;;;;;;;;689365;28;1017;-86
2022/07/16 01:18:41;;;;;;;;;;;28.20;35.70;;;;;;691779;28;1203;-85
2022/07/16 01:19:02;;;;;;;;;;;28.20;35.70;;;;;;689092;28;1228;-87
2022/07/16 01:19:23;;;;;;;;;;;28.20;35.70;;;;;;689901;28;795;-86
2022/07/16 01:19:43;;;;;;;;;;;28.10;35.70;;;;;;689045;28;1307;-85
2022/07/16 01:20:05;;;;;;;;;;;28.20;35.70;;;;;;686543;28;1209;-86
2022/07/16 01:20:26;;;;;;;;;;;;;;;;;;687566;28;1086;-85
2022/07/16 01:20:47;;;;;;;;;;;28.10;35.70;;;;;;689023;28;1076;-85
2022/07/16 01:21:08;;;;;;;;;;;28.20;35.80;;;;;;685958;28;1510;-85
2022/07/16 01:21:28;;;;;;;;;;;28.20;35.80;;;;;;686746;28;1378;-85
2022/07/16 01:21:49;;;;;;;;;;;28.20;35.80;;;;;;686501;28;1393;-86
2022/07/16 01:22:16;;;;;;;;;;;28.10;35.80;;;;;;686060;28;1213;-86
2022/07/16 01:22:37;;;;;;;;;;;28.20;36.00;;;;;;685989;28;1336;-87
2022/07/16 01:22:57;;;;;;;;;;;28.20;36.00;;;;;;684456;28;1084;-86
2022/07/16 01:23:21;;;;;;;;;;;28.20;36.00;;;;;;687123;28;1358;-86
2022/07/16 01:23:45;;;;;;;;;;;;;;;;;;690326;28;1446;-87
2022/07/16 01:24:05;;;;;;;;;;;28.10;35.90;;;;;;691488;28;913;-86
2022/07/16 01:24:26;;;;;;;;;;;28.20;36.00;;;;;;689887;28;1177;-86
2022/07/16 01:24:47;;;;;;;;;;;28.10;35.90;;;;;;688660;28;1247;-85
2022/07/16 01:25:10;;;;;;;;;;;28.20;36.00;;;;;;688707;28;1159;-86
2022/07/16 01:25:30;;;;;;;;;;;28.10;35.90;;;;;;689699;28;1332;-86
2022/07/16 01:25:51;;;;;;;;;;;;;;;;;;691291;28;1400;-87
2022/07/16 01:26:12;;;;;;;;;;;28.20;36.00;;;;;;691501;28;1244;-86
2022/07/16 01:26:33;;;;;;;;;;;28.10;35.80;;;;;;694040;28;1397;-86
2022/07/16 01:26:53;;;;;;;;;;;28.10;35.90;;;;;;693719;28;1207;-86
2022/07/16 01:27:14;;;;;;;;;;;28.10;35.80;;;;;;694203;28;787;-85
2022/07/16 01:27:34;;;;;;;;;;;28.10;35.80;;;;;;691419;28;1222;-86
2022/07/16 01:27:55;;;;;;;;;;;28.10;35.80;;;;;;691358;28;1403;-85
2022/07/16 01:28:16;;;;;;;;;;;;;;;;;;688755;28;1217;-86
2022/07/16 01:28:36;;;;;;;;;;;28.20;35.80;;;;;;688637;28;1338;-85
2022/07/16 01:28:57;;;;;;;;;;;28.10;35.70;;;;;;688595;28;1235;-86
2022/07/16 01:29:18;;;;;;;;;;;28.20;35.80;;;;;;686046;28;1268;-85
2022/07/16 01:29:38;;;;;;;;;;;28.20;35.80;;;;;;683645;28;1465;-85
2022/07/16 01:29:59;;;;;;;;;;;28.20;35.80;;;;;;683766;28;1312;-86
2022/07/16 01:30:19;;;;;;;;;;;28.20;35.70;;;;;;683370;29;1236;-86
2022/07/16 01:30:40;;;;;;;;;;;28.20;35.70;;;;;;683480;28;1488;-85
2022/07/16 01:31:01;;;;;;;;;;;;;;;;;;686299;28;1216;-86
2022/07/16 01:31:22;;;;;;;;;;;28.20;35.70;;;;;;688705;28;1029;-87
2022/07/16 01:31:42;;;;;;;;;;;;;;;;;;686279;28;1359;-86
2022/07/16 01:32:03;;;;;;;;;;;28.20;35.70;;;;;;688686;28;1411;-85
2022/07/16 01:32:24;;;;;;;;;;;28.20;35.70;;;;;;688683;28;1288;-86
2022/07/16 01:32:44;;;;;;;;;;;28.20;35.70;;;;;;688973;28;1204;-85
2022/07/16 01:33:25;;;;;;;;;;;28.20;35.60;;;;;;691121;28;1259;-85
2022/07/16 01:34:24;;;;;;;;;;;28.20;35.60;;;;;;690799;28;1201;-85
2022/07/16 01:34:26;;;;;;;;;;;28.20;35.60;;;;;;691441;28;857;-86
2022/07/16 01:34:47;;;;;;;;;;;28.20;35.60;;;;;;694169;28;838;-86
2022/07/16 01:35:08;;;;;;;;;;;28.20;35.60;;;;;;691163;28;1337;-87
2022/07/16 01:35:28;;;;;;;;;;;28.20;35.50;;;;;;691540;28;1426;-86
2022/07/16 01:35:50;;;;;;;;;;;28.20;35.60;;;;;;691351;28;1326;-86
2022/07/16 01:36:12;;;;;;;;;;;28.20;35.60;;;;;;691401;28;1141;-86
2022/07/16 01:36:32;;;;;;;;;;;28.20;35.60;;;;;;691324;28;1238;-88
2022/07/16 01:36:53;;;;;;;;;;;28.20;35.60;;;;;;691263;28;1216;-86
2022/07/16 01:37:15;;;;;;;;;;;28.20;35.60;;;;;;691960;28;1395;-85
2022/07/16 01:37:35;;;;;;;;;;;28.20;35.60;;;;;;691323;28;1205;-85
2022/07/16 01:37:59;;;;;;;;;;;28.20;35.60;;;;;;691675;28;1192;-88
2022/07/16 01:38:20;;;;;;;;;;;28.20;35.60;;;;;;691398;28;909;-86
2022/07/16 01:38:41;;;;;;;;;;;28.20;35.60;;;;;;688680;28;1292;-86
2022/07/16 01:39:02;;;;;;;;;;;28.20;35.60;;;;;;685884;28;1218;-86
2022/07/16 01:39:23;;;;;;;;;;;28.20;35.60;;;;;;684039;28;1401;-87
2022/07/16 01:39:44;;;;;;;;;;;28.20;35.50;;;;;;684176;28;1598;-87
2022/07/16 01:40:05;;;;;;;;;;;28.20;35.60;;;;;;688708;28;1201;-88
2022/07/16 01:40:26;;;;;;;;;;;28.20;35.50;;;;;;685966;28;1098;-87
2022/07/16 01:40:46;;;;;;;;;;;28.20;35.50;;;;;;686601;28;732;-87
2022/07/16 01:41:08;;;;;;;;;;;28.20;35.50;;;;;;689292;28;846;-87
2022/07/16 01:41:28;;;;;;;;;;;28.20;35.50;;;;;;689174;28;1231;-86
2022/07/16 01:41:52;;;;;;;;;;;28.20;35.50;;;;;;688147;28;1172;-87
2022/07/16 01:42:13;;;;;;;;;;;28.20;35.60;;;;;;689513;28;1276;-87
2022/07/16 01:42:34;;;;;;;;;;;28.20;35.50;;;;;;688676;28;1181;-86
2022/07/16 01:42:54;;;;;;;;;;;28.20;35.50;;;;;;688805;28;1305;-86
2022/07/16 01:43:16;;;;;;;;;;;28.20;35.50;;;;;;689553;28;1317;-88
2022/07/16 01:43:37;;;;;;;;;;;;;;;;;;691438;28;1336;-87
2022/07/16 01:43:58;;;;;;;;;;;28.20;35.50;;;;;;689050;28;1275;-85
2022/07/16 01:44:18;;;;;;;;;;;28.20;35.60;;;;;;688541;28;1293;-85
2022/07/16 01:44:39;;;;;;;;;;;28.20;35.60;;;;;;688890;28;1193;-86
2022/07/16 01:45:00;;;;;;;;;;;28.20;35.60;;;;;;689004;28;1363;-88
2022/07/16 01:45:20;;;;;;;;;;;28.20;35.60;;;;;;686340;28;1240;-89
2022/07/16 01:45:41;;;;;;;;;;;28.20;35.60;;;;;;686363;28;1324;-88
2022/07/16 01:46:02;;;;;;;;;;;28.20;35.60;;;;;;686530;28;1154;-87
2022/07/16 01:46:23;;;;;;;;;;;28.30;35.70;;;;;;686379;28;1327;-86
2022/07/16 01:46:43;;;;;;;;;;;28.20;35.60;;;;;;686572;28;830;-87
2022/07/16 01:47:05;;;;;;;;;;;28.20;35.60;;;;;;686054;28;1227;-86
2022/07/16 01:47:26;;;;;;;;;;;28.20;35.60;;;;;;683919;28;1210;-88
2022/07/16 01:47:46;;;;;;;;;;;28.20;35.50;;;;;;686472;28;1318;-87
2022/07/16 01:48:07;;;;;;;;;;;28.20;35.50;;;;;;689040;28;1344;-86
2022/07/16 01:48:27;;;;;;;;;;;28.20;35.50;;;;;;688672;28;2011;-86
2022/07/16 01:48:48;;;;;;;;;;;28.30;35.60;;;;;;686301;28;1194;-86
2022/07/16 01:49:08;;;;;;;;;;;28.20;35.60;;;;;;685926;28;1100;-87
2022/07/16 01:49:30;;;;;;;;;;;28.20;35.50;;;;;;685621;28;1295;-86
2022/07/16 01:49:50;;;;;;;;;;;28.20;35.50;;;;;;686440;28;712;-86
2022/07/16 01:50:11;;;;;;;;;;;28.20;35.50;;;;;;688961;28;894;-86
2022/07/16 01:50:31;;;;;;;;;;;28.20;35.50;;;;;;688608;28;1489;-86
2022/07/16 01:50:53;;;;;;;;;;;28.20;35.60;;;;;;686282;28;1278;-84
2022/07/16 01:51:13;;;;;;;;;;;28.20;35.50;;;;;;689195;28;925;-86
2022/07/16 01:51:34;;;;;;;;;;;28.30;35.60;;;;;;691326;28;1244;-86
2022/07/16 01:51:55;;;;;;;;;;;28.20;35.50;;;;;;688659;28;1367;-86
2022/07/16 01:52:20;;;;;;;;;;;28.20;35.50;;;;;;688895;28;1236;-85
2022/07/16 01:52:41;;;;;;;;;;;28.20;35.50;;;;;;692372;28;1208;-86
2022/07/16 01:53:02;;;;;;;;;;;28.20;35.50;;;;;;691266;28;1324;-86
2022/07/16 01:53:22;;;;;;;;;;;28.20;35.50;;;;;;691312;28;1109;-85
2022/07/16 01:53:43;;;;;;;;;;;28.20;35.50;;;;;;688577;28;1376;-85
2022/07/16 01:54:03;;;;;;;;;;;28.20;35.50;;;;;;688676;28;866;-85
2022/07/16 01:54:24;;;;;;;;;;;28.20;35.50;;;;;;688434;28;1335;-85
2022/07/16 01:54:46;;;;;;;;;;;28.30;35.60;;;;;;686305;28;1309;-85
2022/07/16 01:55:07;;;;;;;;;;;;;;;;;;688923;28;909;-86
2022/07/16 01:55:28;;;;;;;;;;;28.30;35.60;;;;;;691761;28;1375;-85
2022/07/16 01:55:48;;;;;;;;;;;28.30;35.50;;;;;;691565;28;1342;-88
2022/07/16 01:56:09;;;;;;;;;;;28.30;35.60;;;;;;688529;28;1281;-88
2022/07/16 01:56:29;;;;;;;;;;;28.30;35.60;;;;;;688580;28;1207;-86
2022/07/16 01:56:50;;;;;;;;;;;28.20;35.50;;;;;;688901;28;1268;-87
2022/07/16 01:57:11;;;;;;;;;;;28.30;35.60;;;;;;691249;28;1188;-88
2022/07/16 01:57:31;;;;;;;;;;;28.20;35.50;;;;;;691603;28;1323;-88
2022/07/16 01:57:52;;;;;;;;;;;28.30;35.60;;;;;;690994;28;1315;-87
2022/07/16 01:58:13;;;;;;;;;;;28.20;35.50;;;;;;688702;28;1239;-87
2022/07/16 01:58:34;;;;;;;;;;;28.30;35.50;;;;;;685931;28;1395;-87
2022/07/16 01:58:54;;;;;;;;;;;28.30;35.50;;;;;;685913;28;1433;-87
2022/07/16 01:59:16;;;;;;;;;;;28.20;35.50;;;;;;685500;28;1356;-87
2022/07/16 01:59:37;;;;;;;;;;;28.20;35.50;;;;;;686407;28;1500;-86
2022/07/16 01:59:57;;;;;;;;;;;28.20;35.50;;;;;;686459;28;1240;-87
2022/07/16 02:00:18;;;;;;;;;;;28.30;35.50;;;;;;686284;28;1214;-87
2022/07/16 02:00:39;;;;;;;;;;;28.30;35.60;;;;;;688617;28;1348;-86
2022/07/16 02:01:00;;;;;;;;;;;28.20;35.50;;;;;;688685;28;857;-87
2022/07/16 02:01:21;;;;;;;;;;;28.30;35.50;;;;;;688931;28;1487;-88
2022/07/16 02:01:41;;;;;;;;;;;28.30;35.50;;;;;;691453;28;1196;-87
2022/07/16 02:02:02;;;;;;;;;;;28.20;35.50;;;;;;691664;28;1331;-87
2022/07/16 02:02:22;;;;;;;;;;;28.30;35.50;;;;;;691484;28;1225;-87
2022/07/16 02:02:43;;;;;;;;;;;28.30;35.50;;;;;;688585;28;1366;-88
2022/07/16 02:03:04;;;;;;;;;;;28.30;35.50;;;;;;688890;28;1193;-87
2022/07/16 02:03:24;;;;;;;;;;;28.30;35.50;;;;;;688640;28;1373;-87
2022/07/16 02:03:45;;;;;;;;;;;28.30;35.50;;;;;;686028;28;1254;-87
2022/07/16 02:04:05;;;;;;;;;;;28.30;35.50;;;;;;686414;28;1601;-87
2022/07/16 02:04:26;;;;;;;;;;;28.30;35.50;;;;;;686203;28;1070;-87
2022/07/16 02:04:46;;;;;;;;;;;28.30;35.50;;;;;;688646;28;870;-87
2022/07/16 02:05:07;;;;;;;;;;;28.30;35.50;;;;;;686092;28;1503;-87
2022/07/16 02:05:28;;;;;;;;;;;28.20;35.40;;;;;;688582;28;861;-87
2022/07/16 02:05:49;;;;;;;;;;;28.30;35.50;;;;;;688848;28;1278;-87
2022/07/16 02:06:09;;;;;;;;;;;28.30;35.50;;;;;;688994;28;1323;-87
2022/07/16 02:06:30;;;;;;;;;;;28.30;35.50;;;;;;691265;28;1207;-87
2022/07/16 02:06:51;;;;;;;;;;;28.30;35.50;;;;;;691663;28;1324;-89
2022/07/16 02:07:11;;;;;;;;;;;28.30;35.50;;;;;;691269;28;1329;-88
2022/07/16 02:07:32;;;;;;;;;;;28.30;35.50;;;;;;691766;28;1223;-88
2022/07/16 02:07:52;;;;;;;;;;;28.30;35.50;;;;;;691565;28;1418;-88
2022/07/16 02:08:13;;;;;;;;;;;28.30;35.50;;;;;;691875;28;1182;-89
2022/07/16 02:08:34;;;;;;;;;;;28.30;35.50;;;;;;689048;28;1899;-88
2022/07/16 02:08:54;;;;;;;;;;;28.20;35.50;;;;;;689273;28;1283;-87
2022/07/16 02:09:15;;;;;;;;;;;28.30;35.60;;;;;;688845;28;1345;-87
2022/07/16 02:09:36;;;;;;;;;;;;;;;;;;686556;28;1300;-87
2022/07/16 02:09:57;;;;;;;;;;;28.20;35.50;;;;;;691824;28;1167;-87
2022/07/16 02:10:18;;;;;;;;;;;28.30;35.60;;;;;;693595;28;1292;-87
2022/07/16 02:10:39;;;;;;;;;;;28.20;35.50;;;;;;694365;28;854;-87
2022/07/16 02:10:59;;;;;;;;;;;28.20;35.50;;;;;;691496;28;1237;-89
2022/07/16 02:11:20;;;;;;;;;;;28.20;35.50;;;;;;691072;28;1230;-87
2022/07/16 02:11:40;;;;;;;;;;;28.20;35.60;;;;;;691434;28;1199;-89
2022/07/16 02:12:02;;;;;;;;;;;28.20;35.50;;;;;;691510;28;1401;-89
2022/07/16 02:12:22;;;;;;;;;;;28.30;35.60;;;;;;691199;28;1468;-88
2022/07/16 02:12:43;;;;;;;;;;;28.30;35.60;;;;;;688563;28;1236;-88
2022/07/16 02:13:03;;;;;;;;;;;28.20;35.50;;;;;;688546;28;1343;-87
2022/07/16 02:13:24;;;;;;;;;;;28.20;35.50;;;;;;688504;28;1516;-88
2022/07/16 02:13:45;;;;;;;;;;;28.20;35.60;;;;;;686280;28;1279;-88
2022/07/16 02:14:05;;;;;;;;;;;28.20;35.60;;;;;;688935;28;800;-87
2022/07/16 02:14:26;;;;;;;;;;;28.20;35.70;;;;;;688469;28;1186;-88